sensor_id;sensor_type;location;lat;lon;timestamp;P1;durP1;ratioP1;P2;durP2;ratioP2
63276;SDS011;49403;51.046;13.780;2023-08-31T00:00:17;6.63;;;4.60;;
63276;SDS011;49403;51.046;13.780;2023-08-31T00:00:48;8.52;;;4.70;;
63276;SDS011;49403;51.046;13.780;2023-08-31T00:01:21;13.18;;;4.60;;
63276;SDS011;49403;51.046;13.780;2023-08-31T00:01:52;6.65;;;4.50;;
63276;SDS011;49403;51.046;13.780;2023-08-31T00:02:23;6.30;;;4.30;;
63276;SDS011;49403;51.046;13.780;2023-08-31T00:02:55;5.53;;;4.53;;
63276;SDS011;49403;51.046;13.780;2023-08-31T00:03:26;5.60;;;4.40;;
63276;SDS011;49403;51.046;13.780;2023-08-31T00:03:57;6.13;;;4.47;;
63276;SDS011;49403;51.046;13.780;2023-08-31T00:04:29;6.03;;;4.20;;
63276;SDS011;49403;51.046;13.780;2023-08-31T00:05:01;6.38;;;4.50;;
63276;SDS011;49403;51.046;13.780;2023-08-31T00:05:36;4.95;;;4.20;;
63276;SDS011;49403;51.046;13.780;2023-08-31T00:06:11;4.75;;;4.28;;
63276;SDS011;49403;51.046;13.780;2023-08-31T00:06:41;5.63;;;4.30;;
63276;SDS011;49403;51.046;13.780;2023-08-31T00:07:15;7.13;;;4.80;;
63276;SDS011;49403;51.046;13.780;2023-08-31T00:07:46;9.68;;;4.45;;
63276;SDS011;49403;51.046;13.780;2023-08-31T00:08:17;10.27;;;6.35;;
63276;SDS011;49403;51.046;13.780;2023-08-31T00:08:48;6.03;;;4.72;;
63276;SDS011;49403;51.046;13.780;2023-08-31T00:09:19;5.68;;;4.40;;
63276;SDS011;49403;51.046;13.780;2023-08-31T00:09:51;7.28;;;4.30;;
63276;SDS011;49403;51.046;13.780;2023-08-31T00:10:22;7.10;;;4.78;;
63276;SDS011;49403;51.046;13.780;2023-08-31T00:10:57;6.15;;;4.80;;
63276;SDS011;49403;51.046;13.780;2023-08-31T00:11:28;6.57;;;4.38;;
63276;SDS011;49403;51.046;13.780;2023-08-31T00:12:01;6.93;;;4.43;;
63276;SDS011;49403;51.046;13.780;2023-08-31T00:12:33;7.65;;;4.53;;
63276;SDS011;49403;51.046;13.780;2023-08-31T00:13:05;5.68;;;4.15;;
63276;SDS011;49403;51.046;13.780;2023-08-31T00:13:38;7.20;;;4.60;;
63276;SDS011;49403;51.046;13.780;2023-08-31T00:14:09;5.00;;;4.30;;
63276;SDS011;49403;51.046;13.780;2023-08-31T00:14:41;5.25;;;4.40;;
63276;SDS011;49403;51.046;13.780;2023-08-31T00:15:12;5.00;;;4.32;;
63276;SDS011;49403;51.046;13.780;2023-08-31T00:15:43;6.97;;;4.18;;
63276;SDS011;49403;51.046;13.780;2023-08-31T00:16:17;7.13;;;4.70;;
63276;SDS011;49403;51.046;13.780;2023-08-31T00:16:48;7.35;;;4.22;;
63276;SDS011;49403;51.046;13.780;2023-08-31T00:17:20;7.97;;;4.40;;
63276;SDS011;49403;51.046;13.780;2023-08-31T00:17:51;7.80;;;4.60;;
63276;SDS011;49403;51.046;13.780;2023-08-31T00:18:22;6.63;;;4.28;;
63276;SDS011;49403;51.046;13.780;2023-08-31T00:18:57;7.20;;;4.63;;
63276;SDS011;49403;51.046;13.780;2023-08-31T00:19:29;5.18;;;4.18;;
63276;SDS011;49403;51.046;13.780;2023-08-31T00:20:00;10.10;;;4.80;;
63276;SDS011;49403;51.046;13.780;2023-08-31T00:20:31;8.18;;;4.63;;
63276;SDS011;49403;51.046;13.780;2023-08-31T00:21:03;6.57;;;4.40;;
63276;SDS011;49403;51.046;13.780;2023-08-31T00:21:35;6.35;;;4.85;;
63276;SDS011;49403;51.046;13.780;2023-08-31T00:22:06;5.00;;;4.40;;
63276;SDS011;49403;51.046;13.780;2023-08-31T00:22:37;6.50;;;4.10;;
63276;SDS011;49403;51.046;13.780;2023-08-31T00:23:08;6.00;;;4.32;;
63276;SDS011;49403;51.046;13.780;2023-08-31T00:23:39;4.93;;;4.28;;
63276;SDS011;49403;51.046;13.780;2023-08-31T00:24:11;6.72;;;4.40;;
63276;SDS011;49403;51.046;13.780;2023-08-31T00:24:42;9.45;;;4.60;;
63276;SDS011;49403;51.046;13.780;2023-08-31T00:25:13;5.07;;;4.32;;
63276;SDS011;49403;51.046;13.780;2023-08-31T00:25:45;5.90;;;4.18;;
63276;SDS011;49403;51.046;13.780;2023-08-31T00:26:23;5.43;;;4.30;;
63276;SDS011;49403;51.046;13.780;2023-08-31T00:26:55;6.82;;;4.50;;
63276;SDS011;49403;51.046;13.780;2023-08-31T00:27:26;5.50;;;4.40;;
63276;SDS011;49403;51.046;13.780;2023-08-31T00:28:00;7.40;;;4.10;;
63276;SDS011;49403;51.046;13.780;2023-08-31T00:28:35;7.10;;;4.57;;
63276;SDS011;49403;51.046;13.780;2023-08-31T00:29:07;7.13;;;4.53;;
63276;SDS011;49403;51.046;13.780;2023-08-31T00:29:41;5.50;;;4.30;;
63276;SDS011;49403;51.046;13.780;2023-08-31T00:30:13;5.43;;;4.60;;
63276;SDS011;49403;51.046;13.780;2023-08-31T00:30:45;6.05;;;4.50;;
63276;SDS011;49403;51.046;13.780;2023-08-31T00:31:16;6.40;;;4.40;;
63276;SDS011;49403;51.046;13.780;2023-08-31T00:31:47;6.05;;;4.35;;
63276;SDS011;49403;51.046;13.780;2023-08-31T00:32:21;10.10;;;4.80;;
63276;SDS011;49403;51.046;13.780;2023-08-31T00:32:53;5.47;;;4.60;;
63276;SDS011;49403;51.046;13.780;2023-08-31T00:33:25;6.03;;;4.38;;
63276;SDS011;49403;51.046;13.780;2023-08-31T00:33:56;5.55;;;4.70;;
63276;SDS011;49403;51.046;13.780;2023-08-31T00:34:27;5.28;;;4.55;;
63276;SDS011;49403;51.046;13.780;2023-08-31T00:34:58;5.38;;;4.45;;
63276;SDS011;49403;51.046;13.780;2023-08-31T00:35:30;8.75;;;4.53;;
63276;SDS011;49403;51.046;13.780;2023-08-31T00:36:03;5.50;;;4.10;;
63276;SDS011;49403;51.046;13.780;2023-08-31T00:36:35;5.10;;;4.30;;
63276;SDS011;49403;51.046;13.780;2023-08-31T00:37:08;6.13;;;4.80;;
63276;SDS011;49403;51.046;13.780;2023-08-31T00:37:39;8.10;;;4.70;;
63276;SDS011;49403;51.046;13.780;2023-08-31T00:38:10;5.68;;;4.50;;
63276;SDS011;49403;51.046;13.780;2023-08-31T00:38:42;6.32;;;4.68;;
63276;SDS011;49403;51.046;13.780;2023-08-31T00:39:13;5.68;;;4.68;;
63276;SDS011;49403;51.046;13.780;2023-08-31T00:39:44;5.35;;;4.38;;
63276;SDS011;49403;51.046;13.780;2023-08-31T00:40:16;4.75;;;4.25;;
63276;SDS011;49403;51.046;13.780;2023-08-31T00:40:47;6.35;;;4.75;;
63276;SDS011;49403;51.046;13.780;2023-08-31T00:41:18;7.10;;;4.63;;
63276;SDS011;49403;51.046;13.780;2023-08-31T00:41:50;6.55;;;4.60;;
63276;SDS011;49403;51.046;13.780;2023-08-31T00:42:23;7.68;;;4.65;;
63276;SDS011;49403;51.046;13.780;2023-08-31T00:42:55;5.07;;;4.50;;
63276;SDS011;49403;51.046;13.780;2023-08-31T00:43:27;6.72;;;4.68;;
63276;SDS011;49403;51.046;13.780;2023-08-31T00:43:58;7.50;;;4.40;;
63276;SDS011;49403;51.046;13.780;2023-08-31T00:44:29;5.50;;;4.25;;
63276;SDS011;49403;51.046;13.780;2023-08-31T00:45:03;5.32;;;4.20;;
63276;SDS011;49403;51.046;13.780;2023-08-31T00:45:36;5.30;;;4.28;;
63276;SDS011;49403;51.046;13.780;2023-08-31T00:46:08;6.00;;;4.35;;
63276;SDS011;49403;51.046;13.780;2023-08-31T00:46:40;4.30;;;3.88;;
63276;SDS011;49403;51.046;13.780;2023-08-31T00:47:12;5.53;;;4.65;;
63276;SDS011;49403;51.046;13.780;2023-08-31T00:47:44;6.80;;;4.50;;
63276;SDS011;49403;51.046;13.780;2023-08-31T00:48:17;6.47;;;4.50;;
63276;SDS011;49403;51.046;13.780;2023-08-31T00:48:49;4.95;;;4.28;;
63276;SDS011;49403;51.046;13.780;2023-08-31T00:49:20;6.38;;;4.20;;
63276;SDS011;49403;51.046;13.780;2023-08-31T00:49:51;5.43;;;4.38;;
63276;SDS011;49403;51.046;13.780;2023-08-31T00:50:22;4.60;;;3.97;;
63276;SDS011;49403;51.046;13.780;2023-08-31T00:50:53;5.32;;;4.07;;
63276;SDS011;49403;51.046;13.780;2023-08-31T00:51:25;4.68;;;4.18;;
63276;SDS011;49403;51.046;13.780;2023-08-31T00:51:56;6.57;;;4.10;;
63276;SDS011;49403;51.046;13.780;2023-08-31T00:52:27;5.20;;;4.35;;
63276;SDS011;49403;51.046;13.780;2023-08-31T00:52:59;4.72;;;4.10;;
63276;SDS011;49403;51.046;13.780;2023-08-31T00:53:30;5.35;;;4.20;;
63276;SDS011;49403;51.046;13.780;2023-08-31T00:54:01;6.80;;;4.20;;
63276;SDS011;49403;51.046;13.780;2023-08-31T00:54:34;6.15;;;4.28;;
63276;SDS011;49403;51.046;13.780;2023-08-31T00:55:06;4.72;;;4.05;;
63276;SDS011;49403;51.046;13.780;2023-08-31T00:55:38;4.88;;;4.20;;
63276;SDS011;49403;51.046;13.780;2023-08-31T00:56:13;5.70;;;4.20;;
63276;SDS011;49403;51.046;13.780;2023-08-31T00:57:24;7.32;;;4.45;;
63276;SDS011;49403;51.046;13.780;2023-08-31T00:57:58;5.75;;;4.10;;
63276;SDS011;49403;51.046;13.780;2023-08-31T00:58:30;5.95;;;4.32;;
63276;SDS011;49403;51.046;13.780;2023-08-31T00:59:01;5.45;;;4.15;;
63276;SDS011;49403;51.046;13.780;2023-08-31T00:59:32;6.30;;;4.38;;
63276;SDS011;49403;51.046;13.780;2023-08-31T01:00:04;5.45;;;4.32;;
63276;SDS011;49403;51.046;13.780;2023-08-31T01:01:56;4.93;;;4.13;;
63276;SDS011;49403;51.046;13.780;2023-08-31T01:06:06;6.97;;;4.20;;
63276;SDS011;49403;51.046;13.780;2023-08-31T01:06:52;5.05;;;4.38;;
63276;SDS011;49403;51.046;13.780;2023-08-31T01:07:48;4.45;;;4.00;;
63276;SDS011;49403;51.046;13.780;2023-08-31T01:08:35;4.70;;;4.20;;
63276;SDS011;49403;51.046;13.780;2023-08-31T01:09:22;8.90;;;4.10;;
63276;SDS011;49403;51.046;13.780;2023-08-31T01:10:58;5.22;;;4.00;;
63276;SDS011;49403;51.046;13.780;2023-08-31T01:12:09;4.43;;;3.97;;
63276;SDS011;49403;51.046;13.780;2023-08-31T01:12:44;4.80;;;4.07;;
63276;SDS011;49403;51.046;13.780;2023-08-31T01:13:23;4.60;;;4.10;;
63276;SDS011;49403;51.046;13.780;2023-08-31T01:13:59;4.45;;;4.00;;
63276;SDS011;49403;51.046;13.780;2023-08-31T01:14:42;4.50;;;4.10;;
63276;SDS011;49403;51.046;13.780;2023-08-31T01:15:18;4.63;;;4.13;;
63276;SDS011;49403;51.046;13.780;2023-08-31T01:15:58;4.72;;;4.10;;
63276;SDS011;49403;51.046;13.780;2023-08-31T01:16:33;4.50;;;4.10;;
63276;SDS011;49403;51.046;13.780;2023-08-31T01:17:05;5.05;;;4.15;;
63276;SDS011;49403;51.046;13.780;2023-08-31T01:17:40;6.00;;;3.90;;
63276;SDS011;49403;51.046;13.780;2023-08-31T01:18:21;5.57;;;4.20;;
63276;SDS011;49403;51.046;13.780;2023-08-31T01:18:55;5.00;;;4.03;;
63276;SDS011;49403;51.046;13.780;2023-08-31T01:20:01;4.50;;;4.00;;
63276;SDS011;49403;51.046;13.780;2023-08-31T01:21:27;9.00;;;3.70;;
63276;SDS011;49403;51.046;13.780;2023-08-31T01:22:07;4.00;;;3.60;;
63276;SDS011;49403;51.046;13.780;2023-08-31T01:22:47;5.18;;;3.72;;
63276;SDS011;49403;51.046;13.780;2023-08-31T01:23:56;4.53;;;3.55;;
63276;SDS011;49403;51.046;13.780;2023-08-31T01:24:28;4.78;;;3.90;;
63276;SDS011;49403;51.046;13.780;2023-08-31T01:25:00;4.80;;;3.90;;
63276;SDS011;49403;51.046;13.780;2023-08-31T01:25:34;5.25;;;3.53;;
63276;SDS011;49403;51.046;13.780;2023-08-31T01:26:07;5.47;;;3.70;;
63276;SDS011;49403;51.046;13.780;2023-08-31T01:26:38;4.32;;;3.60;;
63276;SDS011;49403;51.046;13.780;2023-08-31T01:27:11;3.80;;;3.50;;
63276;SDS011;49403;51.046;13.780;2023-08-31T01:27:43;6.75;;;3.53;;
63276;SDS011;49403;51.046;13.780;2023-08-31T01:28:15;4.80;;;3.38;;
63276;SDS011;49403;51.046;13.780;2023-08-31T01:28:47;4.05;;;3.58;;
63276;SDS011;49403;51.046;13.780;2023-08-31T01:29:18;8.55;;;3.78;;
63276;SDS011;49403;51.046;13.780;2023-08-31T01:29:50;5.00;;;3.70;;
63276;SDS011;49403;51.046;13.780;2023-08-31T01:30:24;6.20;;;3.60;;
63276;SDS011;49403;51.046;13.780;2023-08-31T01:30:56;6.82;;;3.67;;
63276;SDS011;49403;51.046;13.780;2023-08-31T01:31:27;5.25;;;3.88;;
63276;SDS011;49403;51.046;13.780;2023-08-31T01:31:59;4.68;;;3.63;;
63276;SDS011;49403;51.046;13.780;2023-08-31T01:32:33;4.57;;;3.83;;
63276;SDS011;49403;51.046;13.780;2023-08-31T01:33:04;4.88;;;3.50;;
63276;SDS011;49403;51.046;13.780;2023-08-31T01:33:35;7.18;;;3.83;;
63276;SDS011;49403;51.046;13.780;2023-08-31T01:34:06;6.03;;;3.70;;
63276;SDS011;49403;51.046;13.780;2023-08-31T01:34:38;4.78;;;3.60;;
63276;SDS011;49403;51.046;13.780;2023-08-31T01:35:09;8.15;;;3.60;;
63276;SDS011;49403;51.046;13.780;2023-08-31T01:35:46;5.15;;;3.70;;
63276;SDS011;49403;51.046;13.780;2023-08-31T01:36:24;4.22;;;3.80;;
63276;SDS011;49403;51.046;13.780;2023-08-31T01:36:59;4.13;;;3.72;;
63276;SDS011;49403;51.046;13.780;2023-08-31T01:37:35;4.07;;;3.65;;
63276;SDS011;49403;51.046;13.780;2023-08-31T01:38:25;5.57;;;3.65;;
63276;SDS011;49403;51.046;13.780;2023-08-31T01:39:06;3.88;;;3.40;;
63276;SDS011;49403;51.046;13.780;2023-08-31T01:39:49;5.35;;;3.53;;
63276;SDS011;49403;51.046;13.780;2023-08-31T01:40:28;4.10;;;3.70;;
63276;SDS011;49403;51.046;13.780;2023-08-31T01:41:21;4.25;;;3.53;;
63276;SDS011;49403;51.046;13.780;2023-08-31T01:41:55;4.25;;;3.70;;
63276;SDS011;49403;51.046;13.780;2023-08-31T01:42:28;6.45;;;3.97;;
63276;SDS011;49403;51.046;13.780;2023-08-31T01:43:01;3.97;;;3.45;;
63276;SDS011;49403;51.046;13.780;2023-08-31T01:43:36;3.88;;;3.47;;
63276;SDS011;49403;51.046;13.780;2023-08-31T01:44:08;4.13;;;3.50;;
63276;SDS011;49403;51.046;13.780;2023-08-31T01:44:46;4.50;;;3.50;;
63276;SDS011;49403;51.046;13.780;2023-08-31T01:45:20;3.63;;;3.30;;
63276;SDS011;49403;51.046;13.780;2023-08-31T01:45:53;4.50;;;3.20;;
63276;SDS011;49403;51.046;13.780;2023-08-31T01:46:24;3.25;;;2.90;;
63276;SDS011;49403;51.046;13.780;2023-08-31T01:47:02;6.22;;;3.28;;
63276;SDS011;49403;51.046;13.780;2023-08-31T01:47:36;3.20;;;2.90;;
63276;SDS011;49403;51.046;13.780;2023-08-31T01:48:07;3.33;;;3.03;;
63276;SDS011;49403;51.046;13.780;2023-08-31T01:48:39;3.85;;;3.10;;
63276;SDS011;49403;51.046;13.780;2023-08-31T01:49:12;3.30;;;3.00;;
63276;SDS011;49403;51.046;13.780;2023-08-31T01:49:44;4.78;;;3.45;;
63276;SDS011;49403;51.046;13.780;2023-08-31T01:50:15;3.67;;;3.15;;
63276;SDS011;49403;51.046;13.780;2023-08-31T01:50:46;3.22;;;3.00;;
63276;SDS011;49403;51.046;13.780;2023-08-31T01:51:18;4.28;;;3.17;;
63276;SDS011;49403;51.046;13.780;2023-08-31T01:51:49;3.30;;;3.00;;
63276;SDS011;49403;51.046;13.780;2023-08-31T01:52:20;3.10;;;2.83;;
63276;SDS011;49403;51.046;13.780;2023-08-31T01:52:51;4.05;;;3.03;;
63276;SDS011;49403;51.046;13.780;2023-08-31T01:53:26;3.40;;;3.10;;
63276;SDS011;49403;51.046;13.780;2023-08-31T01:53:57;3.40;;;3.10;;
63276;SDS011;49403;51.046;13.780;2023-08-31T01:54:29;6.65;;;3.25;;
63276;SDS011;49403;51.046;13.780;2023-08-31T01:55:00;4.20;;;3.17;;
63276;SDS011;49403;51.046;13.780;2023-08-31T01:55:31;3.20;;;2.90;;
63276;SDS011;49403;51.046;13.780;2023-08-31T01:56:03;8.68;;;3.13;;
63276;SDS011;49403;51.046;13.780;2023-08-31T01:56:35;3.35;;;3.05;;
63276;SDS011;49403;51.046;13.780;2023-08-31T01:57:06;4.00;;;2.92;;
63276;SDS011;49403;51.046;13.780;2023-08-31T01:57:37;3.58;;;3.00;;
63276;SDS011;49403;51.046;13.780;2023-08-31T01:58:08;3.95;;;3.00;;
63276;SDS011;49403;51.046;13.780;2023-08-31T01:58:39;3.30;;;3.00;;
63276;SDS011;49403;51.046;13.780;2023-08-31T01:59:10;3.30;;;3.00;;
63276;SDS011;49403;51.046;13.780;2023-08-31T01:59:41;3.67;;;3.10;;
63276;SDS011;49403;51.046;13.780;2023-08-31T02:00:13;9.15;;;3.22;;
63276;SDS011;49403;51.046;13.780;2023-08-31T02:00:46;5.90;;;3.20;;
63276;SDS011;49403;51.046;13.780;2023-08-31T02:01:17;4.30;;;3.00;;
63276;SDS011;49403;51.046;13.780;2023-08-31T02:01:48;4.22;;;2.90;;
63276;SDS011;49403;51.046;13.780;2023-08-31T02:02:20;3.58;;;2.72;;
63276;SDS011;49403;51.046;13.780;2023-08-31T02:02:51;3.30;;;3.00;;
63276;SDS011;49403;51.046;13.780;2023-08-31T02:03:22;3.35;;;2.90;;
63276;SDS011;49403;51.046;13.780;2023-08-31T02:03:53;3.97;;;2.95;;
63276;SDS011;49403;51.046;13.780;2023-08-31T02:04:24;3.20;;;2.90;;
63276;SDS011;49403;51.046;13.780;2023-08-31T02:04:55;3.20;;;2.90;;
63276;SDS011;49403;51.046;13.780;2023-08-31T02:05:26;3.47;;;3.00;;
63276;SDS011;49403;51.046;13.780;2023-08-31T02:05:58;2.90;;;2.70;;
63276;SDS011;49403;51.046;13.780;2023-08-31T02:06:29;3.10;;;2.80;;
63276;SDS011;49403;51.046;13.780;2023-08-31T02:07:00;3.22;;;2.92;;
63276;SDS011;49403;51.046;13.780;2023-08-31T02:07:31;10.27;;;2.90;;
63276;SDS011;49403;51.046;13.780;2023-08-31T02:08:02;3.10;;;2.80;;
63276;SDS011;49403;51.046;13.780;2023-08-31T02:08:33;3.33;;;3.03;;
63276;SDS011;49403;51.046;13.780;2023-08-31T02:09:04;3.15;;;2.88;;
63276;SDS011;49403;51.046;13.780;2023-08-31T02:09:36;3.10;;;2.90;;
63276;SDS011;49403;51.046;13.780;2023-08-31T02:10:07;3.30;;;3.00;;
63276;SDS011;49403;51.046;13.780;2023-08-31T02:10:38;5.15;;;3.20;;
63276;SDS011;49403;51.046;13.780;2023-08-31T02:11:10;4.82;;;2.90;;
63276;SDS011;49403;51.046;13.780;2023-08-31T02:11:41;3.28;;;2.97;;
63276;SDS011;49403;51.046;13.780;2023-08-31T02:12:12;2.88;;;2.67;;
63276;SDS011;49403;51.046;13.780;2023-08-31T02:12:43;3.10;;;2.75;;
63276;SDS011;49403;51.046;13.780;2023-08-31T02:13:14;3.17;;;2.88;;
63276;SDS011;49403;51.046;13.780;2023-08-31T02:13:46;3.08;;;2.83;;
63276;SDS011;49403;51.046;13.780;2023-08-31T02:14:17;3.28;;;2.80;;
63276;SDS011;49403;51.046;13.780;2023-08-31T02:14:48;2.88;;;2.58;;
63276;SDS011;49403;51.046;13.780;2023-08-31T02:15:19;3.25;;;2.67;;
63276;SDS011;49403;51.046;13.780;2023-08-31T02:15:51;3.35;;;3.05;;
63276;SDS011;49403;51.046;13.780;2023-08-31T02:16:23;4.03;;;2.70;;
63276;SDS011;49403;51.046;13.780;2023-08-31T02:16:54;3.17;;;2.88;;
63276;SDS011;49403;51.046;13.780;2023-08-31T02:17:25;2.83;;;2.63;;
63276;SDS011;49403;51.046;13.780;2023-08-31T02:17:56;2.70;;;2.50;;
63276;SDS011;49403;51.046;13.780;2023-08-31T02:18:27;3.10;;;2.80;;
63276;SDS011;49403;51.046;13.780;2023-08-31T02:18:59;4.68;;;2.58;;
63276;SDS011;49403;51.046;13.780;2023-08-31T02:19:30;3.83;;;2.70;;
63276;SDS011;49403;51.046;13.780;2023-08-31T02:20:01;3.90;;;2.80;;
63276;SDS011;49403;51.046;13.780;2023-08-31T02:20:36;2.88;;;2.63;;
63276;SDS011;49403;51.046;13.780;2023-08-31T02:21:07;3.08;;;2.78;;
63276;SDS011;49403;51.046;13.780;2023-08-31T02:21:38;3.70;;;2.90;;
63276;SDS011;49403;51.046;13.780;2023-08-31T02:22:09;3.05;;;2.78;;
63276;SDS011;49403;51.046;13.780;2023-08-31T02:22:40;3.22;;;2.83;;
63276;SDS011;49403;51.046;13.780;2023-08-31T02:23:12;3.83;;;2.60;;
63276;SDS011;49403;51.046;13.780;2023-08-31T02:23:43;3.22;;;2.90;;
63276;SDS011;49403;51.046;13.780;2023-08-31T02:24:14;2.83;;;2.63;;
63276;SDS011;49403;51.046;13.780;2023-08-31T02:24:45;2.88;;;2.67;;
63276;SDS011;49403;51.046;13.780;2023-08-31T02:25:16;3.17;;;2.88;;
63276;SDS011;49403;51.046;13.780;2023-08-31T02:25:47;3.03;;;2.80;;
63276;SDS011;49403;51.046;13.780;2023-08-31T02:26:18;3.45;;;2.97;;
63276;SDS011;49403;51.046;13.780;2023-08-31T02:26:51;5.47;;;2.90;;
63276;SDS011;49403;51.046;13.780;2023-08-31T02:27:22;3.20;;;2.90;;
63276;SDS011;49403;51.046;13.780;2023-08-31T02:27:54;5.30;;;2.80;;
63276;SDS011;49403;51.046;13.780;2023-08-31T02:28:25;3.08;;;2.88;;
63276;SDS011;49403;51.046;13.780;2023-08-31T02:28:56;3.05;;;2.83;;
63276;SDS011;49403;51.046;13.780;2023-08-31T02:29:27;3.15;;;2.85;;
63276;SDS011;49403;51.046;13.780;2023-08-31T02:29:59;3.55;;;2.90;;
63276;SDS011;49403;51.046;13.780;2023-08-31T02:30:30;3.22;;;2.90;;
63276;SDS011;49403;51.046;13.780;2023-08-31T02:31:02;3.28;;;2.97;;
63276;SDS011;49403;51.046;13.780;2023-08-31T02:31:33;4.35;;;2.70;;
63276;SDS011;49403;51.046;13.780;2023-08-31T02:32:05;3.30;;;3.00;;
63276;SDS011;49403;51.046;13.780;2023-08-31T02:32:36;3.10;;;2.80;;
63276;SDS011;49403;51.046;13.780;2023-08-31T02:33:07;3.10;;;2.80;;
63276;SDS011;49403;51.046;13.780;2023-08-31T02:33:39;3.13;;;2.80;;
63276;SDS011;49403;51.046;13.780;2023-08-31T02:34:10;2.95;;;2.70;;
63276;SDS011;49403;51.046;13.780;2023-08-31T02:34:41;3.30;;;2.72;;
63276;SDS011;49403;51.046;13.780;2023-08-31T02:35:13;3.10;;;2.80;;
63276;SDS011;49403;51.046;13.780;2023-08-31T02:35:44;4.30;;;2.90;;
63276;SDS011;49403;51.046;13.780;2023-08-31T02:36:15;3.10;;;2.80;;
63276;SDS011;49403;51.046;13.780;2023-08-31T02:36:46;3.22;;;2.92;;
63276;SDS011;49403;51.046;13.780;2023-08-31T02:37:17;2.90;;;2.70;;
63276;SDS011;49403;51.046;13.780;2023-08-31T02:37:49;2.67;;;2.47;;
63276;SDS011;49403;51.046;13.780;2023-08-31T02:38:20;3.78;;;2.92;;
63276;SDS011;49403;51.046;13.780;2023-08-31T02:38:51;4.60;;;2.80;;
63276;SDS011;49403;51.046;13.780;2023-08-31T02:39:23;3.40;;;3.10;;
63276;SDS011;49403;51.046;13.780;2023-08-31T02:39:54;3.90;;;2.92;;
63276;SDS011;49403;51.046;13.780;2023-08-31T02:40:25;3.35;;;2.85;;
63276;SDS011;49403;51.046;13.780;2023-08-31T02:40:56;3.08;;;2.75;;
63276;SDS011;49403;51.046;13.780;2023-08-31T02:41:28;4.18;;;2.90;;
63276;SDS011;49403;51.046;13.780;2023-08-31T02:41:59;3.50;;;2.70;;
63276;SDS011;49403;51.046;13.780;2023-08-31T02:42:30;3.08;;;2.75;;
63276;SDS011;49403;51.046;13.780;2023-08-31T02:43:01;2.92;;;2.60;;
63276;SDS011;49403;51.046;13.780;2023-08-31T02:43:33;3.45;;;3.00;;
63276;SDS011;49403;51.046;13.780;2023-08-31T02:44:04;4.00;;;2.80;;
63276;SDS011;49403;51.046;13.780;2023-08-31T02:44:35;3.10;;;2.80;;
63276;SDS011;49403;51.046;13.780;2023-08-31T02:45:07;5.22;;;2.60;;
63276;SDS011;49403;51.046;13.780;2023-08-31T02:45:38;2.85;;;2.65;;
63276;SDS011;49403;51.046;13.780;2023-08-31T02:50:05;2.75;;;2.55;;
63276;SDS011;49403;51.046;13.780;2023-08-31T02:50:37;2.90;;;2.70;;
63276;SDS011;49403;51.046;13.780;2023-08-31T02:51:08;3.28;;;2.60;;
63276;SDS011;49403;51.046;13.780;2023-08-31T02:51:39;2.70;;;2.50;;
63276;SDS011;49403;51.046;13.780;2023-08-31T02:52:11;3.10;;;2.80;;
63276;SDS011;49403;51.046;13.780;2023-08-31T02:52:42;3.35;;;2.60;;
63276;SDS011;49403;51.046;13.780;2023-08-31T02:53:13;4.32;;;2.70;;
63276;SDS011;49403;51.046;13.780;2023-08-31T02:53:44;3.80;;;2.47;;
63276;SDS011;49403;51.046;13.780;2023-08-31T02:54:16;2.80;;;2.60;;
63276;SDS011;49403;51.046;13.780;2023-08-31T02:54:47;4.03;;;2.42;;
63276;SDS011;49403;51.046;13.780;2023-08-31T02:55:18;2.72;;;2.53;;
63276;SDS011;49403;51.046;13.780;2023-08-31T02:55:49;3.00;;;2.70;;
63276;SDS011;49403;51.046;13.780;2023-08-31T02:56:20;3.08;;;2.78;;
63276;SDS011;49403;51.046;13.780;2023-08-31T02:56:51;4.20;;;2.80;;
63276;SDS011;49403;51.046;13.780;2023-08-31T02:57:23;2.92;;;2.70;;
63276;SDS011;49403;51.046;13.780;2023-08-31T02:57:54;2.70;;;2.50;;
63276;SDS011;49403;51.046;13.780;2023-08-31T02:58:25;3.55;;;2.78;;
63276;SDS011;49403;51.046;13.780;2023-08-31T02:58:56;4.60;;;2.60;;
63276;SDS011;49403;51.046;13.780;2023-08-31T02:59:27;3.10;;;2.80;;
63276;SDS011;49403;51.046;13.780;2023-08-31T02:59:58;2.72;;;2.53;;
63276;SDS011;49403;51.046;13.780;2023-08-31T03:00:30;4.80;;;2.75;;
63276;SDS011;49403;51.046;13.780;2023-08-31T03:01:09;3.25;;;2.40;;
63276;SDS011;49403;51.046;13.780;2023-08-31T03:01:42;3.05;;;2.60;;
63276;SDS011;49403;51.046;13.780;2023-08-31T03:02:16;3.15;;;2.75;;
63276;SDS011;49403;51.046;13.780;2023-08-31T03:02:47;3.08;;;2.67;;
63276;SDS011;49403;51.046;13.780;2023-08-31T03:03:20;2.80;;;2.60;;
63276;SDS011;49403;51.046;13.780;2023-08-31T03:03:51;5.22;;;2.90;;
63276;SDS011;49403;51.046;13.780;2023-08-31T03:04:22;2.90;;;2.70;;
63276;SDS011;49403;51.046;13.780;2023-08-31T03:04:53;3.05;;;2.70;;
63276;SDS011;49403;51.046;13.780;2023-08-31T03:05:26;2.92;;;2.70;;
63276;SDS011;49403;51.046;13.780;2023-08-31T03:05:57;2.72;;;2.53;;
63276;SDS011;49403;51.046;13.780;2023-08-31T03:06:28;3.97;;;2.85;;
63276;SDS011;49403;51.046;13.780;2023-08-31T03:07:03;4.10;;;2.70;;
63276;SDS011;49403;51.046;13.780;2023-08-31T03:07:34;2.80;;;2.60;;
63276;SDS011;49403;51.046;13.780;2023-08-31T03:08:06;3.13;;;2.60;;
63276;SDS011;49403;51.046;13.780;2023-08-31T03:08:37;3.63;;;2.53;;
63276;SDS011;49403;51.046;13.780;2023-08-31T03:09:08;3.28;;;2.70;;
63276;SDS011;49403;51.046;13.780;2023-08-31T03:09:40;3.42;;;2.63;;
63276;SDS011;49403;51.046;13.780;2023-08-31T03:10:11;2.78;;;2.53;;
63276;SDS011;49403;51.046;13.780;2023-08-31T03:10:43;4.85;;;2.92;;
63276;SDS011;49403;51.046;13.780;2023-08-31T03:11:14;4.13;;;2.70;;
63276;SDS011;49403;51.046;13.780;2023-08-31T03:11:45;3.00;;;2.70;;
63276;SDS011;49403;51.046;13.780;2023-08-31T03:12:17;2.72;;;2.53;;
63276;SDS011;49403;51.046;13.780;2023-08-31T03:12:48;3.03;;;2.58;;
63276;SDS011;49403;51.046;13.780;2023-08-31T03:13:19;4.78;;;2.80;;
63276;SDS011;49403;51.046;13.780;2023-08-31T03:13:50;2.55;;;2.35;;
63276;SDS011;49403;51.046;13.780;2023-08-31T03:14:22;2.80;;;2.60;;
63276;SDS011;49403;51.046;13.780;2023-08-31T03:14:53;2.75;;;2.55;;
63276;SDS011;49403;51.046;13.780;2023-08-31T03:15:24;2.70;;;2.50;;
63276;SDS011;49403;51.046;13.780;2023-08-31T03:15:55;2.83;;;2.63;;
63276;SDS011;49403;51.046;13.780;2023-08-31T03:16:27;2.78;;;2.58;;
63276;SDS011;49403;51.046;13.780;2023-08-31T03:16:58;4.65;;;2.55;;
63276;SDS011;49403;51.046;13.780;2023-08-31T03:17:29;2.80;;;2.60;;
63276;SDS011;49403;51.046;13.780;2023-08-31T03:18:00;2.65;;;2.45;;
63276;SDS011;49403;51.046;13.780;2023-08-31T03:18:32;2.60;;;2.40;;
63276;SDS011;49403;51.046;13.780;2023-08-31T03:19:03;2.88;;;2.63;;
63276;SDS011;49403;51.046;13.780;2023-08-31T03:19:35;2.97;;;2.60;;
63276;SDS011;49403;51.046;13.780;2023-08-31T03:20:07;2.85;;;2.47;;
63276;SDS011;49403;51.046;13.780;2023-08-31T03:20:38;2.80;;;2.60;;
63276;SDS011;49403;51.046;13.780;2023-08-31T03:21:09;3.13;;;2.63;;
63276;SDS011;49403;51.046;13.780;2023-08-31T03:21:40;4.30;;;2.70;;
63276;SDS011;49403;51.046;13.780;2023-08-31T03:22:11;2.88;;;2.65;;
63276;SDS011;49403;51.046;13.780;2023-08-31T03:22:43;2.78;;;2.50;;
63276;SDS011;49403;51.046;13.780;2023-08-31T03:23:14;2.92;;;2.70;;
63276;SDS011;49403;51.046;13.780;2023-08-31T03:23:45;2.78;;;2.58;;
63276;SDS011;49403;51.046;13.780;2023-08-31T03:24:16;3.35;;;2.50;;
63276;SDS011;49403;51.046;13.780;2023-08-31T03:24:47;2.70;;;2.50;;
63276;SDS011;49403;51.046;13.780;2023-08-31T03:25:18;2.78;;;2.58;;